createdAt,value
2019-03-11T00:02:15.741Z,5.90
2019-03-11T00:07:20.747Z,5.30
2019-03-11T00:12:25.676Z,5.20
2019-03-11T00:17:30.423Z,5.30
2019-03-11T00:22:35.106Z,5.50
2019-03-11T00:27:39.970Z,5.50
2019-03-11T00:38:07.762Z,5.50
2019-03-11T00:43:12.495Z,5.60
2019-03-11T00:48:17.265Z,5.60
2019-03-11T00:53:22.266Z,5.90
2019-03-11T00:58:26.860Z,6.00
2019-03-11T01:03:33.803Z,6.20
2019-03-11T01:08:38.506Z,6.30
2019-03-11T01:13:43.173Z,6.10
2019-03-11T01:18:48.031Z,5.90
2019-03-11T01:23:52.706Z,6.00
2019-03-11T01:28:57.876Z,5.80
2019-03-11T01:34:02.481Z,5.70
2019-03-11T01:39:08.503Z,5.80
2019-03-11T01:44:13.306Z,5.80
2019-03-11T01:49:18.009Z,5.70
2019-03-11T01:54:22.710Z,5.40
2019-03-11T01:59:27.603Z,5.70
2019-03-11T02:04:32.143Z,5.50
2019-03-11T02:09:36.711Z,5.70
2019-03-11T02:14:41.391Z,5.80
2019-03-11T02:19:46.068Z,5.60
2019-03-11T02:24:50.878Z,5.80
2019-03-11T02:29:55.469Z,5.40
2019-03-11T02:35:00.064Z,5.50
2019-03-11T02:40:05.552Z,5.50
2019-03-11T02:45:10.521Z,5.40
2019-03-11T02:50:15.218Z,5.40
2019-03-11T02:55:19.902Z,5.40
2019-03-11T03:00:25.027Z,5.40
2019-03-11T03:05:44.855Z,5.40
2019-03-11T03:10:49.575Z,5.40
2019-03-11T03:15:54.379Z,5.50
2019-03-11T03:20:59.505Z,5.30
2019-03-11T03:26:04.306Z,5.30
2019-03-11T03:31:09.393Z,5.20
2019-03-11T03:36:14.067Z,5.10
2019-03-11T03:41:18.881Z,5.10
2019-03-11T03:46:23.544Z,5.10
2019-03-11T03:51:28.453Z,5.00
2019-03-11T03:56:33.107Z,5.30
2019-03-11T04:01:38.100Z,5.20
2019-03-11T04:06:42.725Z,5.30
2019-03-11T04:11:47.406Z,5.50
2019-03-11T04:16:52.000Z,5.10
2019-03-11T04:21:56.923Z,5.40
2019-03-11T04:27:06.788Z,5.10
2019-03-11T04:32:11.619Z,5.20
2019-03-11T04:37:16.182Z,5.30
2019-03-11T04:42:23.128Z,5.30
2019-03-11T04:47:27.725Z,5.00
2019-03-11T04:52:32.429Z,5.30
2019-03-11T04:57:45.249Z,5.50
2019-03-11T05:02:50.110Z,5.40
2019-03-11T05:07:54.836Z,5.10
2019-03-11T05:12:59.671Z,5.00
2019-03-11T05:18:04.753Z,5.20
2019-03-11T05:23:09.198Z,4.90
2019-03-11T05:28:13.865Z,4.80
2019-03-11T05:33:18.386Z,5.20
2019-03-11T05:38:23.593Z,4.90
2019-03-11T05:43:28.155Z,4.70
2019-03-11T05:48:33.150Z,4.70
2019-03-11T05:53:37.732Z,5.20
2019-03-11T05:58:42.322Z,5.20
2019-03-11T06:03:46.943Z,5.30
2019-03-11T06:08:55.307Z,5.00
2019-03-11T06:13:59.998Z,4.90
2019-03-11T06:19:04.788Z,5.10
2019-03-11T06:24:09.502Z,5.40
2019-03-11T06:29:14.165Z,5.30
2019-03-11T06:34:18.807Z,5.10
2019-03-11T06:39:23.490Z,5.30
2019-03-11T06:44:28.033Z,4.10
2019-03-11T06:49:32.703Z,4.20
2019-03-11T06:54:37.734Z,4.30
2019-03-11T06:59:42.308Z,4.30
2019-03-11T07:04:47.139Z,4.20
2019-03-11T07:09:52.127Z,4.10
2019-03-11T07:14:59.301Z,4.50
2019-03-11T07:20:03.570Z,4.40
2019-03-11T07:25:08.803Z,4.40
2019-03-11T07:30:13.502Z,4.70
2019-03-11T07:35:18.108Z,4.30
2019-03-11T07:40:29.553Z,4.50
2019-03-11T07:45:28.886Z,4.50
2019-03-11T07:50:33.564Z,5.70
2019-03-11T07:55:38.255Z,6.20
2019-03-11T08:00:53.410Z,5.90
2019-03-11T08:05:49.062Z,5.60
2019-03-11T08:10:53.705Z,5.60
2019-03-11T08:15:58.193Z,6.20
2019-03-11T08:21:02.803Z,6.20
2019-03-11T08:26:07.651Z,6.40
2019-03-11T08:31:12.599Z,6.40
2019-03-11T08:36:17.455Z,6.20
2019-03-11T08:41:22.180Z,5.80
2019-03-11T08:46:26.971Z,6.20
2019-03-11T08:51:31.475Z,6.60
2019-03-11T08:56:36.107Z,6.50
2019-03-11T09:01:40.916Z,6.40
2019-03-11T09:06:45.554Z,6.40
2019-03-11T09:11:50.122Z,7.20
2019-03-11T09:16:54.975Z,7.10
2019-03-11T09:21:59.768Z,7.40
2019-03-11T09:27:04.562Z,7.30
2019-03-11T09:32:09.343Z,7.90
2019-03-11T09:37:14.259Z,7.80
2019-03-11T09:42:19.759Z,8.00
2019-03-11T09:47:24.395Z,7.90
2019-03-11T09:52:29.091Z,8.50
2019-03-11T09:57:34.026Z,8.10
2019-03-11T10:02:38.715Z,9.00
2019-03-11T10:07:43.432Z,8.90
2019-03-11T10:12:48.151Z,9.10
2019-03-11T10:17:52.760Z,9.50
2019-03-11T10:22:57.410Z,9.80
2019-03-11T10:28:02.007Z,10.10
2019-03-11T10:33:06.700Z,9.80
2019-03-11T10:38:11.400Z,9.80
2019-03-11T10:43:16.106Z,9.10
2019-03-11T10:48:21.151Z,10.60
2019-03-11T10:53:25.731Z,10.50
2019-03-11T10:58:30.344Z,10.30
2019-03-11T11:03:37.827Z,10.80
2019-03-11T11:08:42.454Z,10.10
2019-03-11T11:13:47.068Z,9.60
2019-03-11T11:18:51.743Z,9.60
2019-03-11T11:23:56.641Z,9.60
2019-03-11T11:29:01.375Z,10.40
2019-03-11T11:34:06.401Z,11.70
2019-03-11T11:39:11.230Z,12.80
2019-03-11T11:44:15.877Z,13.10
2019-03-11T11:49:20.796Z,13.30
2019-03-11T11:54:25.467Z,13.60
2019-03-11T11:59:30.283Z,14.40
2019-03-11T12:04:34.890Z,13.70
2019-03-11T12:09:39.534Z,13.00
2019-03-11T12:14:44.454Z,12.90
2019-03-11T12:19:48.954Z,12.90
2019-03-11T12:24:53.674Z,11.50
2019-03-11T12:29:58.442Z,10.70
2019-03-11T12:35:03.097Z,10.70
2019-03-11T12:40:08.840Z,10.50
2019-03-11T12:45:14.654Z,11.60
2019-03-11T12:50:19.961Z,11.50
2019-03-11T12:55:24.902Z,12.00
2019-03-11T13:00:29.623Z,11.40
2019-03-11T13:05:34.406Z,10.80
2019-03-11T13:10:39.176Z,10.10
2019-03-11T13:15:43.874Z,12.20
2019-03-11T13:20:48.986Z,12.10
2019-03-11T13:25:53.703Z,11.60
2019-03-11T13:30:58.374Z,10.50
2019-03-11T13:36:03.151Z,10.60
2019-03-11T13:41:07.736Z,10.50
2019-03-11T13:46:12.367Z,9.20
2019-03-11T13:51:17.041Z,9.90
2019-03-11T13:56:21.756Z,10.50
2019-03-11T14:01:26.469Z,11.30
2019-03-11T14:06:31.058Z,10.80
2019-03-11T14:11:35.698Z,9.80
2019-03-11T14:16:40.566Z,9.60
2019-03-11T14:21:45.227Z,8.90
2019-03-11T14:26:49.823Z,9.10
2019-03-11T14:31:54.418Z,9.40
2019-03-11T14:36:59.011Z,10.70
2019-03-11T14:42:03.678Z,10.30
2019-03-11T14:47:08.281Z,9.60
2019-03-11T14:52:12.906Z,10.20
2019-03-11T14:57:17.506Z,10.50
2019-03-11T15:02:22.118Z,10.10
2019-03-11T15:07:27.093Z,9.50
2019-03-11T15:12:31.979Z,9.20
2019-03-11T15:17:36.667Z,9.70
2019-03-11T15:22:41.375Z,11.50
2019-03-11T15:27:46.347Z,11.10
2019-03-11T15:32:51.093Z,9.60
2019-03-11T15:37:56.004Z,9.00
2019-03-11T15:43:00.571Z,9.40
2019-03-11T15:48:05.202Z,9.50
2019-03-11T15:53:09.827Z,9.40
2019-03-11T15:58:14.500Z,9.10
2019-03-11T16:03:19.318Z,8.90
2019-03-11T16:08:24.219Z,9.10
2019-03-11T16:13:28.900Z,9.00
2019-03-11T16:18:33.474Z,8.80
2019-03-11T16:23:38.719Z,8.90
2019-03-11T16:28:48.286Z,8.60
2019-03-11T16:33:52.823Z,8.60
2019-03-11T16:38:57.543Z,8.40
2019-03-11T16:44:02.171Z,8.40
2019-03-11T16:49:07.168Z,8.40
2019-03-11T16:54:11.872Z,8.00
2019-03-11T16:59:16.546Z,8.10
2019-03-11T17:04:21.101Z,8.20
2019-03-11T17:09:25.781Z,7.90
2019-03-11T17:14:30.497Z,7.90
2019-03-11T17:19:35.232Z,7.70
2019-03-11T17:24:40.018Z,7.70
2019-03-11T17:29:44.769Z,7.50
2019-03-11T17:34:49.506Z,7.50
2019-03-11T17:39:54.186Z,7.70
2019-03-11T17:44:58.902Z,7.60
2019-03-11T17:50:03.778Z,7.60
2019-03-11T17:55:08.963Z,7.70
2019-03-11T18:00:19.373Z,7.40
2019-03-11T18:05:24.329Z,7.40
2019-03-11T18:10:29.056Z,7.50
2019-03-11T18:15:33.653Z,7.60
2019-03-11T18:20:38.478Z,7.50
2019-03-11T18:25:43.231Z,7.30
2019-03-11T18:30:48.178Z,7.50
2019-03-11T18:35:52.775Z,7.50
2019-03-11T18:40:57.422Z,7.60
2019-03-11T18:46:02.043Z,7.50
2019-03-11T18:51:10.775Z,7.40
2019-03-11T18:56:13.092Z,7.20
2019-03-11T19:01:17.849Z,7.30
2019-03-11T19:06:22.577Z,7.30
2019-03-11T19:11:27.450Z,7.20
2019-03-11T19:16:32.291Z,7.40
2019-03-11T19:21:37.104Z,7.40
2019-03-11T19:26:41.843Z,7.10
2019-03-11T19:31:47.007Z,7.10
2019-03-11T19:36:52.561Z,7.00
2019-03-11T19:41:59.073Z,7.00
2019-03-11T19:47:06.778Z,7.30
2019-03-11T19:52:33.264Z,7.20
2019-03-11T19:57:38.406Z,7.30
2019-03-11T20:02:44.244Z,7.20
2019-03-11T20:07:49.898Z,7.20
2019-03-11T20:12:55.741Z,7.30
2019-03-11T20:18:01.671Z,7.20
2019-03-11T20:23:07.680Z,7.10
2019-03-11T20:28:12.984Z,7.00
2019-03-11T20:33:39.090Z,7.20
2019-03-11T20:39:04.568Z,7.20
2019-03-11T20:44:28.290Z,7.40
2019-03-11T20:49:51.682Z,7.20
2019-03-11T20:55:15.754Z,7.30
2019-03-11T21:00:23.719Z,7.20
2019-03-11T21:05:28.610Z,7.20
2019-03-11T21:10:33.360Z,7.30
2019-03-11T21:15:38.125Z,7.30
2019-03-11T21:20:43.040Z,7.20
2019-03-11T21:25:47.854Z,7.30
2019-03-11T21:30:53.081Z,7.30
2019-03-11T21:36:01.772Z,7.20
2019-03-11T21:41:07.667Z,7.10
2019-03-11T21:46:23.661Z,6.90
2019-03-11T21:51:29.315Z,6.70
2019-03-11T21:56:33.993Z,6.70
2019-03-11T22:01:38.671Z,6.80
2019-03-11T22:06:43.263Z,6.80
2019-03-11T22:11:48.209Z,6.60
2019-03-11T22:16:52.977Z,6.50
2019-03-11T22:21:59.583Z,6.70
2019-03-11T22:27:04.319Z,6.40
2019-03-11T22:32:08.859Z,6.20
2019-03-11T22:37:13.659Z,6.10
2019-03-11T22:42:18.260Z,5.70
2019-03-11T22:47:26.011Z,5.50
2019-03-11T22:52:30.610Z,5.70
2019-03-11T22:57:35.282Z,5.60
2019-03-11T23:02:40.525Z,5.70
2019-03-11T23:07:45.442Z,5.50
2019-03-11T23:12:50.099Z,5.20
2019-03-11T23:17:54.721Z,4.90
2019-03-11T23:22:59.371Z,5.30
2019-03-11T23:28:04.039Z,5.40
2019-03-11T23:33:08.961Z,5.30
2019-03-11T23:38:13.681Z,5.10
2019-03-11T23:43:18.316Z,5.00
2019-03-11T23:48:22.894Z,4.90
2019-03-11T23:53:27.368Z,4.90
2019-03-11T23:58:32.046Z,5.00
